createdAt,value
2022-11-10T00:00:29.377Z,2.10
2022-11-10T00:01:29.392Z,3.10
2022-11-10T00:02:29.363Z,2.60
2022-11-10T00:03:29.350Z,2.90
2022-11-10T00:04:29.374Z,2.40
2022-11-10T00:05:29.335Z,2.30
2022-11-10T00:06:29.432Z,2.80
2022-11-10T00:07:30.456Z,2.80
2022-11-10T00:08:30.457Z,3.00
2022-11-10T00:09:30.442Z,3.50
2022-11-10T00:10:30.441Z,2.80
2022-11-10T00:11:30.450Z,2.80
2022-11-10T00:12:30.422Z,2.70
2022-11-10T00:13:30.413Z,2.80
2022-11-10T00:14:30.410Z,2.60
2022-11-10T00:15:30.394Z,2.80
2022-11-10T00:16:30.420Z,2.70
2022-11-10T00:17:30.379Z,2.60
2022-11-10T00:18:30.368Z,2.40
2022-11-10T00:19:30.364Z,2.80
2022-11-10T00:20:30.354Z,2.70
2022-11-10T00:21:30.378Z,2.90
2022-11-10T00:22:30.338Z,2.80
2022-11-10T00:23:30.335Z,2.50
2022-11-10T00:24:30.323Z,2.60
2022-11-10T00:25:30.314Z,2.70
2022-11-10T00:26:30.332Z,3.00
2022-11-10T00:27:30.295Z,2.90
2022-11-10T00:28:30.289Z,3.00
2022-11-10T00:29:30.275Z,3.00
2022-11-10T00:30:30.279Z,3.50
2022-11-10T00:31:30.293Z,3.30
2022-11-10T00:32:30.261Z,2.90
2022-11-10T00:33:30.245Z,3.60
2022-11-10T00:34:30.241Z,3.10
2022-11-10T00:35:30.227Z,3.30
2022-11-10T00:36:30.245Z,3.40
2022-11-10T00:37:30.220Z,2.90
2022-11-10T00:38:30.209Z,3.20
2022-11-10T00:39:30.211Z,4.10
2022-11-10T00:40:30.224Z,3.30
2022-11-10T00:41:30.213Z,3.60
2022-11-10T00:42:30.173Z,2.80
2022-11-10T00:43:30.481Z,3.10
2022-11-10T00:44:30.168Z,3.30
2022-11-10T00:45:30.149Z,3.20
2022-11-10T00:46:30.180Z,3.00
2022-11-10T00:47:30.138Z,3.20
2022-11-10T00:48:30.127Z,3.10
2022-11-10T00:49:30.120Z,3.30
2022-11-10T00:50:30.110Z,2.90
2022-11-10T00:51:30.098Z,3.30
2022-11-10T00:52:30.117Z,3.20
2022-11-10T00:53:30.086Z,3.40
2022-11-10T00:54:30.079Z,2.90
2022-11-10T00:55:30.069Z,3.30
2022-11-10T00:56:30.067Z,3.50
2022-11-10T00:57:30.088Z,3.30
2022-11-10T00:58:30.044Z,3.40
2022-11-10T00:59:30.052Z,3.40
2022-11-10T01:00:30.045Z,2.90
2022-11-10T01:01:30.071Z,3.70
2022-11-10T01:02:30.046Z,3.30
2022-11-10T01:03:30.006Z,3.00
2022-11-10T01:04:30.000Z,2.80
2022-11-10T01:05:29.995Z,3.00
2022-11-10T01:06:30.011Z,2.90
2022-11-10T01:07:29.999Z,2.80
2022-11-10T01:08:29.965Z,2.70
2022-11-10T01:09:29.964Z,2.90
2022-11-10T01:10:29.958Z,2.90
2022-11-10T01:11:29.951Z,3.50
2022-11-10T01:12:29.980Z,2.70
2022-11-10T01:13:29.928Z,3.60
2022-11-10T01:14:29.923Z,3.20
2022-11-10T01:15:29.918Z,3.00
2022-11-10T01:16:29.939Z,2.80
2022-11-10T01:17:29.897Z,3.20
2022-11-10T01:18:29.896Z,2.90
2022-11-10T01:19:29.881Z,2.80
2022-11-10T01:20:29.882Z,3.20
2022-11-10T01:21:29.870Z,3.20
2022-11-10T01:22:29.880Z,2.90
2022-11-10T01:23:29.847Z,3.00
2022-11-10T01:24:29.837Z,3.00
2022-11-10T01:25:29.836Z,2.80
2022-11-10T01:26:29.823Z,2.50
2022-11-10T01:27:29.845Z,2.60
2022-11-10T01:28:29.802Z,2.80
2022-11-10T01:29:29.798Z,3.00
2022-11-10T01:30:29.787Z,2.80
2022-11-10T01:31:29.804Z,2.70
2022-11-10T01:32:29.772Z,2.70
2022-11-10T01:33:29.762Z,3.10
2022-11-10T01:34:29.761Z,2.70
2022-11-10T01:35:29.748Z,3.00
2022-11-10T01:36:29.761Z,2.90
2022-11-10T01:37:29.744Z,2.70
2022-11-10T01:38:29.718Z,2.80
2022-11-10T01:39:29.717Z,2.50
2022-11-10T01:40:29.747Z,3.00
2022-11-10T01:41:29.730Z,3.10
2022-11-10T01:42:29.713Z,3.00
2022-11-10T01:43:29.686Z,2.80
2022-11-10T01:44:29.675Z,2.60
2022-11-10T01:45:29.675Z,2.40
2022-11-10T01:46:29.688Z,2.80
2022-11-10T01:47:29.657Z,2.30
2022-11-10T01:48:29.653Z,2.60
2022-11-10T01:49:29.639Z,2.30
2022-11-10T01:50:29.630Z,2.70
2022-11-10T01:51:29.621Z,2.80
2022-11-10T01:52:29.647Z,2.70
2022-11-10T01:53:29.607Z,2.80
2022-11-10T01:54:29.592Z,3.00
2022-11-10T01:55:29.591Z,2.60
2022-11-10T01:56:29.582Z,2.60
2022-11-10T01:57:29.597Z,2.70
2022-11-10T01:58:29.565Z,2.70
2022-11-10T01:59:29.556Z,2.70
2022-11-10T02:00:29.580Z,3.00
2022-11-10T02:01:29.544Z,2.80
2022-11-10T02:02:29.560Z,2.80
2022-11-10T02:03:29.526Z,2.60
2022-11-10T02:04:29.521Z,2.60
2022-11-10T02:05:29.517Z,2.80
2022-11-10T02:06:29.578Z,2.80
2022-11-10T02:07:29.524Z,2.90
2022-11-10T02:08:29.484Z,3.20
2022-11-10T02:09:29.476Z,2.90
2022-11-10T02:10:29.477Z,2.20
2022-11-10T02:11:29.464Z,2.60
2022-11-10T02:12:29.487Z,2.50
2022-11-10T02:13:29.446Z,2.70
2022-11-10T02:14:29.440Z,2.40
2022-11-10T02:15:29.433Z,3.10
2022-11-10T02:16:29.423Z,2.60
2022-11-10T02:17:29.439Z,2.00
2022-11-10T02:18:29.411Z,2.60
2022-11-10T02:19:29.392Z,2.30
2022-11-10T02:20:29.394Z,2.40
2022-11-10T02:21:29.386Z,2.30
2022-11-10T02:22:29.404Z,2.40
2022-11-10T02:23:29.370Z,2.60
2022-11-10T02:24:29.356Z,2.60
2022-11-10T02:25:29.347Z,2.10
2022-11-10T02:26:29.344Z,2.80
2022-11-10T02:27:29.363Z,3.30
2022-11-10T02:28:29.331Z,2.40
2022-11-10T02:29:29.314Z,2.50
2022-11-10T02:30:29.313Z,2.00
2022-11-10T02:31:29.305Z,2.20
2022-11-10T02:32:29.331Z,2.40
2022-11-10T02:33:29.293Z,2.00
2022-11-10T02:34:29.279Z,2.50
2022-11-10T02:35:29.271Z,2.70
2022-11-10T02:36:29.291Z,2.40
2022-11-10T02:37:29.255Z,2.20
2022-11-10T02:38:29.251Z,2.90
2022-11-10T02:39:29.244Z,4.00
2022-11-10T02:40:29.236Z,2.50
2022-11-10T02:41:29.231Z,2.40
2022-11-10T02:42:29.249Z,2.60
2022-11-10T02:43:29.213Z,2.60
2022-11-10T02:44:29.206Z,2.60
2022-11-10T02:45:29.200Z,2.40
2022-11-10T02:46:29.194Z,2.60
2022-11-10T02:47:29.212Z,2.50
2022-11-10T02:48:29.180Z,2.60
2022-11-10T02:49:29.162Z,2.60
2022-11-10T02:50:29.162Z,2.70
2022-11-10T02:51:29.147Z,2.70
2022-11-10T02:52:29.175Z,2.80
2022-11-10T02:53:29.136Z,2.60
2022-11-10T02:54:29.127Z,2.30
2022-11-10T02:55:29.120Z,2.60
2022-11-10T02:56:29.116Z,2.30
2022-11-10T02:57:29.130Z,2.90
2022-11-10T02:58:29.099Z,3.20
2022-11-10T02:59:29.099Z,2.60
2022-11-10T03:00:29.076Z,2.30
2022-11-10T03:01:29.151Z,2.70
2022-11-10T03:02:32.200Z,3.30
2022-11-10T03:03:30.054Z,3.00
2022-11-10T03:04:29.047Z,2.80
2022-11-10T03:05:29.037Z,3.30
2022-11-10T03:06:29.032Z,2.90
2022-11-10T03:07:29.042Z,2.90
2022-11-10T03:08:29.012Z,3.00
2022-11-10T03:09:29.003Z,3.00
2022-11-10T03:10:29.001Z,2.90
2022-11-10T03:11:32.227Z,2.80
2022-11-10T03:12:30.006Z,3.30
2022-11-10T03:13:40.235Z,3.40
2022-11-10T03:14:30.959Z,3.00
2022-11-10T03:15:28.952Z,3.50
2022-11-10T03:16:28.949Z,3.80
2022-11-10T03:17:28.968Z,3.80
2022-11-10T03:18:28.926Z,3.40
2022-11-10T03:19:28.934Z,3.50
2022-11-10T03:20:28.916Z,3.30
2022-11-10T03:21:28.905Z,5.10
2022-11-10T03:22:28.922Z,3.60
2022-11-10T03:23:28.894Z,3.80
2022-11-10T03:24:28.882Z,3.40
2022-11-10T03:25:28.865Z,4.00
2022-11-10T03:26:28.859Z,3.90
2022-11-10T03:27:28.884Z,3.70
2022-11-10T03:28:28.850Z,3.50
2022-11-10T03:29:28.843Z,3.40
2022-11-10T03:30:28.816Z,3.80
2022-11-10T03:31:29.821Z,2.90
2022-11-10T03:32:28.824Z,3.20
2022-11-10T03:33:28.830Z,3.40
2022-11-10T03:34:31.776Z,2.90
2022-11-10T03:35:29.799Z,2.80
2022-11-10T03:36:28.783Z,3.20
2022-11-10T03:37:28.776Z,3.50
2022-11-10T03:38:28.796Z,3.30
2022-11-10T03:39:28.755Z,2.90
2022-11-10T03:40:28.755Z,2.70
2022-11-10T03:41:28.757Z,3.30
2022-11-10T03:42:28.735Z,3.10
2022-11-10T03:43:28.759Z,3.10
2022-11-10T03:44:28.728Z,4.10
2022-11-10T03:45:28.720Z,3.50
2022-11-10T03:46:28.706Z,3.20
2022-11-10T03:47:28.700Z,3.50
2022-11-10T03:48:28.713Z,3.80
2022-11-10T03:49:28.684Z,3.50
2022-11-10T03:50:28.674Z,3.50
2022-11-10T03:51:28.663Z,3.70
2022-11-10T03:52:28.654Z,3.80
2022-11-10T03:53:28.671Z,3.80
2022-11-10T03:54:28.644Z,3.40
2022-11-10T03:55:28.630Z,3.80
2022-11-10T03:56:28.623Z,2.90
2022-11-10T03:57:28.656Z,3.30
2022-11-10T03:58:28.611Z,3.20
2022-11-10T03:59:28.607Z,4.20
2022-11-10T04:00:28.599Z,3.80
2022-11-10T04:01:28.647Z,3.40
2022-11-10T04:02:28.606Z,3.00
2022-11-10T04:03:28.578Z,3.40
2022-11-10T04:04:28.562Z,3.10
2022-11-10T04:05:28.559Z,3.00
2022-11-10T04:06:28.553Z,2.80
2022-11-10T04:07:28.548Z,3.10
2022-11-10T04:08:28.561Z,2.80
2022-11-10T04:09:28.529Z,3.40
2022-11-10T04:10:28.524Z,2.90
2022-11-10T04:11:28.509Z,2.60
2022-11-10T04:12:28.507Z,2.90
2022-11-10T04:13:28.522Z,2.80
2022-11-10T04:14:28.480Z,2.90
2022-11-10T04:15:28.475Z,2.80
2022-11-10T04:16:28.472Z,2.30
2022-11-10T04:17:28.468Z,2.20
2022-11-10T04:18:28.486Z,2.60
2022-11-10T04:19:28.447Z,2.40
2022-11-10T04:20:28.445Z,2.20
2022-11-10T04:21:28.432Z,2.60
2022-11-10T04:22:28.437Z,2.40
2022-11-10T04:23:28.444Z,2.30
2022-11-10T04:24:28.414Z,2.60
2022-11-10T04:25:28.396Z,2.30
2022-11-10T04:26:28.447Z,2.30
2022-11-10T04:27:28.381Z,2.10
2022-11-10T04:28:28.408Z,2.30
2022-11-10T04:29:28.374Z,2.20
2022-11-10T04:30:28.361Z,2.00
2022-11-10T04:31:28.349Z,2.40
2022-11-10T04:32:28.346Z,2.30
2022-11-10T04:33:28.364Z,1.90
2022-11-10T04:34:28.336Z,2.50
2022-11-10T04:35:28.326Z,2.80
2022-11-10T04:36:28.310Z,2.60
2022-11-10T04:37:28.306Z,2.80
2022-11-10T04:38:28.326Z,2.90
2022-11-10T04:39:28.289Z,2.70
2022-11-10T04:40:28.284Z,2.90
2022-11-10T04:41:28.335Z,3.00
2022-11-10T04:42:28.266Z,2.90
2022-11-10T04:43:28.287Z,2.60
2022-11-10T04:44:28.249Z,2.60
2022-11-10T04:45:28.231Z,2.10
2022-11-10T04:46:29.238Z,2.70
2022-11-10T04:47:28.228Z,2.40
2022-11-10T04:48:28.258Z,2.70
2022-11-10T04:49:28.221Z,2.10
2022-11-10T04:50:28.213Z,2.60
2022-11-10T04:51:28.400Z,2.50
2022-11-10T04:52:28.185Z,3.30
2022-11-10T04:53:29.204Z,2.90
2022-11-10T04:54:28.175Z,2.90
2022-11-10T04:55:28.161Z,3.30
2022-11-10T04:56:28.189Z,3.30
2022-11-10T04:57:28.147Z,2.80
2022-11-10T04:58:28.167Z,3.00
2022-11-10T04:59:28.136Z,2.70
2022-11-10T05:00:28.147Z,3.00
2022-11-10T05:01:28.119Z,3.50
2022-11-10T05:02:28.109Z,3.40
2022-11-10T05:03:28.130Z,3.40
2022-11-10T05:04:28.097Z,3.30
2022-11-10T05:05:28.105Z,3.30
2022-11-10T05:06:28.074Z,3.20
2022-11-10T05:07:28.068Z,3.10
2022-11-10T05:08:28.089Z,3.10
2022-11-10T05:09:28.056Z,3.10
2022-11-10T05:10:28.049Z,3.50
2022-11-10T05:11:28.044Z,3.10
2022-11-10T05:12:28.028Z,3.30
2022-11-10T05:13:28.051Z,3.70
2022-11-10T05:14:28.018Z,4.70
2022-11-10T05:15:28.012Z,4.10
2022-11-10T05:16:27.998Z,4.20
2022-11-10T05:17:27.988Z,4.10
2022-11-10T05:18:28.012Z,4.20
2022-11-10T05:19:27.963Z,4.00
2022-11-10T05:20:28.962Z,4.00
2022-11-10T05:21:27.960Z,4.00
2022-11-10T05:22:27.943Z,4.30
2022-11-10T05:23:27.970Z,4.20
2022-11-10T05:24:27.932Z,4.50
2022-11-10T05:25:27.918Z,3.90
2022-11-10T05:26:27.917Z,4.30
2022-11-10T05:27:27.910Z,4.20
2022-11-10T05:28:27.922Z,4.40
2022-11-10T05:29:27.889Z,3.70
2022-11-10T05:30:27.884Z,3.70
2022-11-10T05:31:27.871Z,3.40
2022-11-10T05:32:27.869Z,3.20
2022-11-10T05:33:27.894Z,3.20
2022-11-10T05:34:27.854Z,3.00
2022-11-10T05:35:27.847Z,3.00
2022-11-10T05:36:27.852Z,2.60
2022-11-10T05:37:27.838Z,3.00
2022-11-10T05:38:27.852Z,2.40
2022-11-10T05:39:27.816Z,2.60
2022-11-10T05:40:27.811Z,2.70
2022-11-10T05:41:27.800Z,2.80
2022-11-10T05:42:27.798Z,2.70
2022-11-10T05:43:27.813Z,2.90
2022-11-10T05:44:27.776Z,3.00
2022-11-10T05:45:27.775Z,3.10
2022-11-10T05:46:27.764Z,3.80
2022-11-10T05:47:27.753Z,4.50
2022-11-10T05:48:27.771Z,5.90
2022-11-10T05:49:27.742Z,5.80
2022-11-10T05:50:27.734Z,5.80
2022-11-10T05:51:27.728Z,5.40
2022-11-10T05:52:27.741Z,3.20
2022-11-10T05:53:27.705Z,3.70
2022-11-10T05:54:27.728Z,3.80
2022-11-10T05:55:27.697Z,3.20
2022-11-10T05:56:27.679Z,4.00
2022-11-10T05:57:27.672Z,5.00
2022-11-10T05:58:27.666Z,5.40
2022-11-10T05:59:27.684Z,5.80
2022-11-10T06:00:27.647Z,6.20
2022-11-10T06:01:28.646Z,6.00
2022-11-10T06:02:27.637Z,5.50
2022-11-10T06:03:28.062Z,5.20
2022-11-10T06:04:27.643Z,4.70
2022-11-10T06:05:31.105Z,4.30
2022-11-10T06:06:28.603Z,5.00
2022-11-10T06:07:27.588Z,4.10
2022-11-10T06:08:28.586Z,3.80
2022-11-10T06:09:27.608Z,3.80
2022-11-10T06:10:27.574Z,3.80
2022-11-10T06:11:27.570Z,3.20
2022-11-10T06:12:27.564Z,3.70
2022-11-10T06:13:27.547Z,4.90
2022-11-10T06:14:27.572Z,4.20
2022-11-10T06:15:27.535Z,3.90
2022-11-10T06:16:27.533Z,4.10
2022-11-10T06:17:27.517Z,4.60
2022-11-10T06:18:27.505Z,3.70
2022-11-10T06:19:27.525Z,4.50
2022-11-10T06:20:27.494Z,4.50
2022-11-10T06:21:27.480Z,4.30
2022-11-10T06:22:27.475Z,4.40
2022-11-10T06:23:27.470Z,4.30
2022-11-10T06:24:27.497Z,4.10
2022-11-10T06:25:27.456Z,4.20
2022-11-10T06:26:27.446Z,4.00
2022-11-10T06:27:27.436Z,4.10
2022-11-10T06:28:27.431Z,3.60
2022-11-10T06:29:27.446Z,3.90
2022-11-10T06:30:27.414Z,4.20
2022-11-10T06:31:27.405Z,3.60
2022-11-10T06:32:27.396Z,4.30
2022-11-10T06:33:27.386Z,3.70
2022-11-10T06:34:27.404Z,4.20
2022-11-10T06:35:27.372Z,4.10
2022-11-10T06:36:27.365Z,4.50
2022-11-10T06:37:27.355Z,5.00
2022-11-10T06:38:27.361Z,4.40
2022-11-10T06:39:27.366Z,4.70
2022-11-10T06:40:27.333Z,4.60
2022-11-10T06:41:27.323Z,4.10
2022-11-10T06:42:27.316Z,3.70
2022-11-10T06:43:27.310Z,3.80
2022-11-10T06:44:27.323Z,4.30
2022-11-10T06:45:27.294Z,4.10
2022-11-10T06:46:27.287Z,3.70
2022-11-10T06:47:27.277Z,4.00
2022-11-10T06:48:27.272Z,3.90
2022-11-10T06:49:27.316Z,3.90
2022-11-10T06:50:27.252Z,4.30
2022-11-10T06:51:27.245Z,3.90
2022-11-10T06:52:27.236Z,4.20
2022-11-10T06:53:27.388Z,3.80
2022-11-10T06:54:28.246Z,3.90
2022-11-10T06:55:27.213Z,4.10
2022-11-10T06:56:27.205Z,4.00
2022-11-10T06:57:27.205Z,4.00
2022-11-10T06:58:27.191Z,3.80
2022-11-10T06:59:27.208Z,4.10
2022-11-10T07:00:27.177Z,4.10
2022-11-10T07:01:27.247Z,3.70
2022-11-10T07:02:27.158Z,4.40
2022-11-10T07:03:27.154Z,4.80
2022-11-10T07:04:27.172Z,3.90
2022-11-10T07:05:27.137Z,4.50
2022-11-10T07:06:27.132Z,4.40
2022-11-10T07:07:27.115Z,4.90
2022-11-10T07:08:27.111Z,4.90
2022-11-10T07:09:27.137Z,4.70
2022-11-10T07:10:27.095Z,5.30
2022-11-10T07:11:27.101Z,5.00
2022-11-10T07:12:27.086Z,4.90
2022-11-10T07:13:27.074Z,5.90
2022-11-10T07:14:27.063Z,5.60
2022-11-10T07:15:27.080Z,5.30
2022-11-10T07:16:27.052Z,5.50
2022-11-10T07:17:27.039Z,5.40
2022-11-10T07:18:27.033Z,5.70
2022-11-10T07:19:27.025Z,5.50
2022-11-10T07:20:27.042Z,5.60
2022-11-10T07:21:27.010Z,5.80
2022-11-10T07:22:26.996Z,5.60
2022-11-10T07:23:26.986Z,6.40
2022-11-10T07:24:26.981Z,5.70
2022-11-10T07:25:27.001Z,6.20
2022-11-10T07:26:26.968Z,5.70
2022-11-10T07:27:26.968Z,5.80
2022-11-10T07:28:28.447Z,5.70
2022-11-10T07:29:27.939Z,6.20
2022-11-10T07:30:26.954Z,6.40
2022-11-10T07:31:26.925Z,6.80
2022-11-10T07:32:26.917Z,6.50
2022-11-10T07:33:26.906Z,7.30
2022-11-10T07:34:26.899Z,7.20
2022-11-10T07:35:26.917Z,7.20
2022-11-10T07:36:26.884Z,5.90
2022-11-10T07:37:26.877Z,6.20
2022-11-10T07:38:26.865Z,5.60
2022-11-10T07:39:26.862Z,5.50
2022-11-10T07:40:26.877Z,4.80
2022-11-10T07:41:26.841Z,5.10
2022-11-10T07:42:26.840Z,5.10
2022-11-10T07:43:26.827Z,5.20
2022-11-10T07:44:26.849Z,5.70
2022-11-10T07:45:26.813Z,4.80
2022-11-10T07:46:26.809Z,4.90
2022-11-10T07:47:26.801Z,4.90
2022-11-10T07:48:26.788Z,5.30
2022-11-10T07:49:26.809Z,5.60
2022-11-10T07:50:26.799Z,4.60
2022-11-10T07:51:26.768Z,4.70
2022-11-10T07:52:26.761Z,5.20
2022-11-10T07:53:26.757Z,4.80
2022-11-10T07:54:26.767Z,5.20
2022-11-10T07:55:26.734Z,5.50
2022-11-10T07:56:26.734Z,4.80
2022-11-10T07:57:26.724Z,4.80
2022-11-10T07:58:26.715Z,5.00
2022-11-10T07:59:26.737Z,5.10
2022-11-10T08:00:26.744Z,5.40
2022-11-10T08:01:26.724Z,5.50
2022-11-10T08:02:26.685Z,5.50
2022-11-10T08:03:26.796Z,6.10
2022-11-10T08:04:26.691Z,4.70
2022-11-10T08:05:26.661Z,4.80
2022-11-10T08:06:27.220Z,4.20
2022-11-10T08:07:26.724Z,3.60
2022-11-10T08:08:26.641Z,4.30
2022-11-10T08:09:26.651Z,3.00
2022-11-10T08:10:26.619Z,2.90
2022-11-10T08:11:26.616Z,3.10
2022-11-10T08:12:29.860Z,3.00
2022-11-10T08:13:27.598Z,3.40
2022-11-10T08:14:26.615Z,3.40
2022-11-10T08:15:26.586Z,2.80
2022-11-10T08:16:26.573Z,2.90
2022-11-10T08:17:26.567Z,2.90
2022-11-10T08:18:30.825Z,2.80
2022-11-10T08:19:28.574Z,2.90
2022-11-10T08:20:26.633Z,3.50
2022-11-10T08:21:26.538Z,2.90
2022-11-10T08:22:26.530Z,2.90
2022-11-10T08:23:26.511Z,2.70
2022-11-10T08:24:27.541Z,3.00
2022-11-10T08:25:31.616Z,2.80
2022-11-10T08:26:28.490Z,3.10
2022-11-10T08:27:26.486Z,2.60
2022-11-10T08:28:26.481Z,2.70
2022-11-10T08:29:26.498Z,2.90
2022-11-10T08:30:26.507Z,3.30
2022-11-10T08:31:26.453Z,3.10
2022-11-10T08:32:26.460Z,3.00
2022-11-10T08:33:26.625Z,3.00
2022-11-10T08:34:26.453Z,3.70
2022-11-10T08:35:26.454Z,3.60
2022-11-10T08:36:26.422Z,3.70
2022-11-10T08:37:26.411Z,4.40
2022-11-10T08:38:26.403Z,3.70
2022-11-10T08:39:38.521Z,4.20
2022-11-10T08:40:28.475Z,4.50
2022-11-10T08:41:26.381Z,4.00
2022-11-10T08:42:26.374Z,4.30
2022-11-10T08:43:26.461Z,3.90
2022-11-10T08:44:26.356Z,3.90
2022-11-10T08:45:26.361Z,4.00
2022-11-10T08:46:27.340Z,3.90
2022-11-10T08:47:26.327Z,3.20
2022-11-10T08:48:26.321Z,3.10
2022-11-10T08:49:26.308Z,3.40
2022-11-10T08:50:26.331Z,3.50
2022-11-10T08:51:26.299Z,3.00
2022-11-10T08:52:26.291Z,3.10
2022-11-10T08:53:26.520Z,3.20
2022-11-10T08:54:26.278Z,3.40
2022-11-10T08:55:26.291Z,3.80
2022-11-10T08:56:26.260Z,3.70
2022-11-10T08:57:26.250Z,3.00
2022-11-10T08:58:26.245Z,3.50
2022-11-10T08:59:26.234Z,3.60
2022-11-10T09:00:26.256Z,3.70
2022-11-10T09:01:26.217Z,4.10
2022-11-10T09:02:26.210Z,4.10
2022-11-10T09:03:26.685Z,4.30
2022-11-10T09:04:26.228Z,4.00
2022-11-10T09:05:26.210Z,3.30
2022-11-10T09:06:26.180Z,4.50
2022-11-10T09:07:26.167Z,4.10
2022-11-10T09:08:26.177Z,3.40
2022-11-10T09:09:26.158Z,3.40
2022-11-10T09:10:26.171Z,3.20
2022-11-10T09:11:26.140Z,3.20
2022-11-10T09:12:26.130Z,3.30
2022-11-10T09:13:29.801Z,3.90
2022-11-10T09:14:27.113Z,3.50
2022-11-10T09:15:26.136Z,3.10
2022-11-10T09:16:26.100Z,3.10
2022-11-10T09:17:26.091Z,2.90
2022-11-10T09:18:26.087Z,3.60
2022-11-10T09:19:26.151Z,3.70
2022-11-10T09:20:26.092Z,2.80
2022-11-10T09:21:26.057Z,3.30
2022-11-10T09:22:26.051Z,3.60
2022-11-10T09:23:26.183Z,3.30
2022-11-10T09:24:31.134Z,3.40
2022-11-10T09:25:28.051Z,3.00
2022-11-10T09:26:26.019Z,2.90
2022-11-10T09:27:26.018Z,2.80
2022-11-10T09:28:26.004Z,2.60
2022-11-10T09:29:26.005Z,2.70
2022-11-10T09:30:26.019Z,2.80
2022-11-10T09:31:25.987Z,2.90
2022-11-10T09:32:25.976Z,2.60
2022-11-10T09:33:26.327Z,2.30
2022-11-10T09:34:25.967Z,2.50
2022-11-10T09:35:25.980Z,2.20
2022-11-10T09:36:25.949Z,3.10
2022-11-10T09:37:25.937Z,2.70
2022-11-10T09:38:25.983Z,2.70
2022-11-10T09:39:25.919Z,2.70
2022-11-10T09:40:25.962Z,2.90
2022-11-10T09:41:25.904Z,2.70
2022-11-10T09:42:25.899Z,3.10
2022-11-10T09:43:25.893Z,2.50
2022-11-10T09:44:25.880Z,2.50
2022-11-10T09:45:25.903Z,2.80
2022-11-10T09:46:25.862Z,2.60
2022-11-10T09:48:27.851Z,2.60
2022-11-10T09:49:25.843Z,2.50
2022-11-10T09:50:25.873Z,2.90
2022-11-10T09:51:25.852Z,2.50
2022-11-10T09:52:25.817Z,2.40
2022-11-10T09:53:25.819Z,2.70
2022-11-10T09:54:25.805Z,2.30
2022-11-10T09:55:25.839Z,2.80
2022-11-10T09:56:25.812Z,2.90
2022-11-10T09:57:25.786Z,2.70
2022-11-10T09:58:25.775Z,3.20
2022-11-10T09:59:25.763Z,3.10
2022-11-10T10:00:25.821Z,3.10
2022-11-10T10:01:26.811Z,2.90
2022-11-10T10:02:25.737Z,2.40
2022-11-10T10:03:25.730Z,2.60
2022-11-10T10:04:25.722Z,2.90
2022-11-10T10:05:25.751Z,2.70
2022-11-10T10:06:30.550Z,2.80
2022-11-10T10:07:26.743Z,4.10
2022-11-10T10:08:25.751Z,3.40
2022-11-10T10:09:25.681Z,3.10
2022-11-10T10:10:25.753Z,2.50
2022-11-10T10:11:25.667Z,2.90
2022-11-10T10:12:25.650Z,2.70
2022-11-10T10:13:25.647Z,2.50
2022-11-10T10:14:25.641Z,3.20
2022-11-10T10:15:26.005Z,2.90
2022-11-10T10:16:26.648Z,2.70
2022-11-10T10:17:27.125Z,2.50
2022-11-10T10:18:26.607Z,3.40
2022-11-10T10:19:25.599Z,2.80
2022-11-10T10:20:25.632Z,2.80
2022-11-10T10:21:25.608Z,2.40
2022-11-10T10:22:25.573Z,2.90
2022-11-10T10:23:46.825Z,2.90
2022-11-10T10:24:27.554Z,2.60
2022-11-10T10:25:25.550Z,2.70
2022-11-10T10:26:25.564Z,3.00
2022-11-10T10:27:25.540Z,2.90
2022-11-10T10:28:25.840Z,2.70
2022-11-10T10:29:25.518Z,2.70
2022-11-10T10:30:25.508Z,2.60
2022-11-10T10:31:25.524Z,3.10
2022-11-10T10:32:25.599Z,2.80
2022-11-10T10:33:25.484Z,2.80
2022-11-10T10:34:25.480Z,3.30
2022-11-10T10:35:25.504Z,2.70
2022-11-10T10:36:25.488Z,2.40
2022-11-10T10:37:25.450Z,3.40
2022-11-10T10:38:25.596Z,2.90
2022-11-10T10:39:25.436Z,2.70
2022-11-10T10:40:25.465Z,3.10
2022-11-10T10:41:25.422Z,2.90
2022-11-10T10:42:25.412Z,3.10
2022-11-10T10:43:25.440Z,3.30
2022-11-10T10:44:25.401Z,2.60
2022-11-10T10:45:25.451Z,2.90
2022-11-10T10:46:25.405Z,2.20
2022-11-10T10:47:25.366Z,2.40
2022-11-10T10:48:25.361Z,2.80
2022-11-10T10:49:30.178Z,2.40
2022-11-10T10:50:27.378Z,3.10
2022-11-10T10:51:25.351Z,2.70
2022-11-10T10:52:25.501Z,2.50
2022-11-10T10:53:25.324Z,2.90
2022-11-10T10:54:25.317Z,2.70
2022-11-10T10:55:25.305Z,2.80
2022-11-10T10:56:25.321Z,3.40
2022-11-10T10:57:25.294Z,2.90
2022-11-10T10:58:25.861Z,3.30
2022-11-10T10:59:25.277Z,3.00
2022-11-10T11:00:25.272Z,3.00
2022-11-10T11:01:25.371Z,3.10
2022-11-10T11:02:25.253Z,3.00
2022-11-10T11:03:25.251Z,2.70
2022-11-10T11:04:25.241Z,3.00
2022-11-10T11:05:25.264Z,3.00
2022-11-10T11:06:25.261Z,3.00
2022-11-10T11:07:25.215Z,3.50
2022-11-10T11:08:25.462Z,2.70
2022-11-10T11:09:25.202Z,3.10
2022-11-10T11:10:25.189Z,2.60
2022-11-10T11:11:25.221Z,2.70
2022-11-10T11:12:25.174Z,3.30
2022-11-10T11:13:25.181Z,3.80
2022-11-10T11:14:25.158Z,3.30
2022-11-10T11:15:25.153Z,3.60
2022-11-10T11:16:25.171Z,2.60
2022-11-10T11:17:25.202Z,2.80
2022-11-10T11:18:25.438Z,3.30
2022-11-10T11:19:25.123Z,3.10
2022-11-10T11:20:25.111Z,2.80
2022-11-10T11:21:25.138Z,3.30
2022-11-10T11:22:25.127Z,2.50
2022-11-10T11:23:25.087Z,3.10
2022-11-10T11:24:25.079Z,3.10
2022-11-10T11:25:25.074Z,2.60
2022-11-10T11:26:25.065Z,2.90
2022-11-10T11:27:25.080Z,3.10
2022-11-10T11:28:25.343Z,2.40
2022-11-10T11:29:25.046Z,2.40
2022-11-10T11:30:25.035Z,2.40
2022-11-10T11:31:25.026Z,3.20
2022-11-10T11:32:25.043Z,2.50
2022-11-10T11:33:25.011Z,2.60
2022-11-10T11:34:24.997Z,2.40
2022-11-10T11:35:24.993Z,2.50
2022-11-10T11:36:25.004Z,2.80
2022-11-10T11:37:24.995Z,2.60
2022-11-10T11:38:25.307Z,2.20
2022-11-10T11:39:24.962Z,2.60
2022-11-10T11:40:24.956Z,3.20
2022-11-10T11:41:24.942Z,3.10
2022-11-10T11:42:24.960Z,2.70
2022-11-10T11:43:24.931Z,2.50
2022-11-10T11:44:24.922Z,2.60
2022-11-10T11:45:25.004Z,1.90
2022-11-10T11:46:24.909Z,3.00
2022-11-10T11:47:24.927Z,2.90
2022-11-10T11:48:25.384Z,2.60
2022-11-10T11:49:24.887Z,2.70
2022-11-10T11:50:24.885Z,2.60
2022-11-10T11:51:24.869Z,2.60
2022-11-10T11:52:24.883Z,2.60
2022-11-10T11:53:24.851Z,2.70
2022-11-10T11:54:24.844Z,2.50
2022-11-10T11:55:24.838Z,2.70
2022-11-10T11:56:24.824Z,2.60
2022-11-10T11:57:24.844Z,2.90
2022-11-10T11:58:25.268Z,2.50
2022-11-10T11:59:24.802Z,2.50
2022-11-10T12:00:24.802Z,2.60
2022-11-10T12:01:24.787Z,2.50
2022-11-10T12:02:24.835Z,2.70
2022-11-10T12:03:24.772Z,2.50
2022-11-10T12:04:24.766Z,2.80
2022-11-10T12:05:24.753Z,2.90
2022-11-10T12:06:24.739Z,2.50
2022-11-10T12:07:24.761Z,2.70
2022-11-10T12:08:26.706Z,2.70
2022-11-10T12:09:24.723Z,2.40
2022-11-10T12:10:24.714Z,3.10
2022-11-10T12:11:24.702Z,3.30
2022-11-10T12:12:24.722Z,3.10
2022-11-10T12:13:24.695Z,3.30
2022-11-10T12:14:24.688Z,2.70
2022-11-10T12:15:24.672Z,2.80
2022-11-10T12:16:24.666Z,3.70
2022-11-10T12:17:24.682Z,2.70
2022-11-10T12:18:24.854Z,2.80
2022-11-10T12:19:24.646Z,3.00
2022-11-10T12:20:24.649Z,2.90
2022-11-10T12:21:24.632Z,2.80
2022-11-10T12:22:24.715Z,2.80
2022-11-10T12:23:24.618Z,2.40
2022-11-10T12:24:24.608Z,2.60
2022-11-10T12:25:24.596Z,2.50
2022-11-10T12:26:24.595Z,2.50
2022-11-10T12:27:24.623Z,2.60
2022-11-10T12:28:24.872Z,2.40
2022-11-10T12:29:24.570Z,2.80
2022-11-10T12:30:24.564Z,2.30
2022-11-10T12:31:24.554Z,2.40
2022-11-10T12:32:24.542Z,2.60
2022-11-10T12:33:24.567Z,2.90
2022-11-10T12:34:24.526Z,2.00
2022-11-10T12:35:24.567Z,2.40
2022-11-10T12:36:24.511Z,2.30
2022-11-10T12:37:27.803Z,1.90
2022-11-10T12:38:25.653Z,2.90
2022-11-10T12:39:24.502Z,2.50
2022-11-10T12:40:24.480Z,2.10
2022-11-10T12:41:24.466Z,2.30
2022-11-10T12:42:24.485Z,2.40
2022-11-10T12:43:24.951Z,1.80
2022-11-10T12:44:24.445Z,2.20
2022-11-10T12:45:24.439Z,2.00
2022-11-10T12:46:24.430Z,2.70
2022-11-10T12:47:24.444Z,2.10
2022-11-10T12:48:24.687Z,2.20
2022-11-10T12:49:24.405Z,2.00
2022-11-10T12:50:24.397Z,2.20
2022-11-10T12:51:24.395Z,2.80
2022-11-10T12:52:24.427Z,2.60
2022-11-10T12:53:24.372Z,2.30
2022-11-10T12:54:24.367Z,2.40
2022-11-10T12:55:24.357Z,1.90
2022-11-10T12:56:24.359Z,2.70
2022-11-10T12:57:24.371Z,2.70
2022-11-10T12:58:24.748Z,2.00
2022-11-10T12:59:24.329Z,2.20
2022-11-10T13:00:28.190Z,2.60
2022-11-10T13:01:25.349Z,2.20
2022-11-10T13:02:24.324Z,2.20
2022-11-10T13:03:24.301Z,2.40
2022-11-10T13:04:24.283Z,2.50
2022-11-10T13:05:24.277Z,1.80
2022-11-10T13:06:24.270Z,2.50
2022-11-10T13:07:24.350Z,2.40
2022-11-10T13:08:24.656Z,2.70
2022-11-10T13:09:24.247Z,2.40
2022-11-10T13:10:24.242Z,2.70
2022-11-10T13:11:24.244Z,3.10
2022-11-10T13:12:24.251Z,2.30
2022-11-10T13:13:24.233Z,1.90
2022-11-10T13:14:24.211Z,2.70
2022-11-10T13:15:24.254Z,2.90
2022-11-10T13:16:24.193Z,3.00
2022-11-10T13:17:24.208Z,3.20
2022-11-10T13:18:24.564Z,2.70
2022-11-10T13:19:24.182Z,2.30